createdAt,value
2024-01-05T00:11:39.940Z,6.08
2024-01-05T00:26:42.195Z,6.61
2024-01-05T00:41:44.355Z,6.66
2024-01-05T00:56:46.381Z,6.47
2024-01-05T01:11:48.788Z,6.23
2024-01-05T01:26:51.078Z,6.38
2024-01-05T01:41:53.107Z,7.94
2024-01-05T01:56:55.283Z,7.9
2024-01-05T02:11:57.441Z,8.03
2024-01-05T02:26:59.533Z,7.88
2024-01-05T02:42:01.626Z,8.06
2024-01-05T02:57:03.728Z,7.97
2024-01-05T03:12:05.898Z,8.14
2024-01-05T03:27:07.987Z,8.24
2024-01-05T03:42:10.220Z,8.05
2024-01-05T03:57:12.307Z,7.83
2024-01-05T04:12:14.335Z,7.2
2024-01-05T04:27:16.493Z,7.67
2024-01-05T04:42:18.595Z,7.24
2024-01-05T04:57:20.578Z,7.17
2024-01-05T05:12:22.612Z,6.68
2024-01-05T05:27:24.633Z,6.5
2024-01-05T05:42:26.648Z,6.56
2024-01-05T05:57:28.816Z,6.04
2024-01-05T06:12:31.018Z,6.29
2024-01-05T06:27:38.821Z,5.66
2024-01-05T06:42:41.664Z,5.81
2024-01-05T06:57:43.816Z,6.18
2024-01-05T07:12:45.839Z,6.4
2024-01-05T07:27:47.927Z,6.42
2024-01-05T07:42:49.933Z,6.13
2024-01-05T07:57:52.026Z,5.96
2024-01-05T08:12:54.106Z,5.99
2024-01-05T08:27:56.269Z,5.65
2024-01-05T08:42:58.422Z,5.62
2024-01-05T08:58:00.427Z,6.06
2024-01-05T09:13:02.520Z,6.04
2024-01-05T09:28:04.693Z,5.3
2024-01-05T09:43:06.777Z,5.36
2024-01-05T09:58:09.010Z,5.54
2024-01-05T10:13:11.036Z,5.26
2024-01-05T10:28:13.122Z,5.38
2024-01-05T10:43:15.200Z,5.25
2024-01-05T10:58:17.279Z,5.18
2024-01-05T11:13:19.328Z,4.84
2024-01-05T11:28:21.352Z,5.52
2024-01-05T11:43:23.620Z,5.56
2024-01-05T11:58:25.818Z,6.07
2024-01-05T12:13:28.316Z,5.6
2024-01-05T12:28:30.355Z,5.3
2024-01-05T12:43:32.518Z,5.5
2024-01-05T12:58:36.177Z,5.33
2024-01-05T13:13:38.214Z,5.47
2024-01-05T13:28:40.335Z,5.6
2024-01-05T13:43:42.505Z,5.5
2024-01-05T13:58:44.980Z,5.15
2024-01-05T14:13:47.043Z,4.22
2024-01-05T14:28:49.027Z,4.54
2024-01-05T14:43:51.161Z,4.7
2024-01-05T14:58:53.259Z,5.61
2024-01-05T15:13:55.430Z,4.97
2024-01-05T15:28:57.515Z,5.09
2024-01-05T15:43:59.527Z,5.34
2024-01-05T15:59:01.549Z,5.04
2024-01-05T16:14:03.570Z,4.75
2024-01-05T16:29:05.605Z,4.86
2024-01-05T16:44:07.650Z,4.88
2024-01-05T16:59:09.666Z,5.05
2024-01-05T17:14:11.643Z,4.89
2024-01-05T17:29:13.609Z,5.16
2024-01-05T17:44:15.684Z,4.49
2024-01-05T17:59:17.716Z,3.38
2024-01-05T18:14:19.741Z,3.2
2024-01-05T18:29:28.249Z,3.79
2024-01-05T18:44:31.851Z,4.02
2024-01-05T18:59:33.912Z,4.41
2024-01-05T19:14:35.879Z,4.49
2024-01-05T19:29:39.567Z,4.49
2024-01-05T19:44:41.821Z,5.3
2024-01-05T19:59:43.823Z,5.45
2024-01-05T20:14:45.822Z,5.19
2024-01-05T20:29:49.648Z,4.68
2024-01-05T20:44:51.813Z,5.09
2024-01-05T20:59:53.730Z,5.13
2024-01-05T21:14:55.674Z,5.3
2024-01-05T21:29:57.755Z,5.5
2024-01-05T21:44:59.772Z,5.73
2024-01-05T22:00:01.774Z,5.77
2024-01-05T22:15:04.051Z,5.92
2024-01-05T22:30:06.101Z,5.6
2024-01-05T22:45:08.192Z,6.01
2024-01-05T23:00:10.318Z,5.4
2024-01-05T23:15:12.433Z,6.02
2024-01-05T23:30:14.609Z,6.26
2024-01-05T23:45:16.755Z,5.79
